createdAt,value
2023-03-02T07:13:52.528Z,22.94
2023-03-02T07:14:16.988Z,22.95
2023-03-02T08:04:04.929Z,23.86
2023-03-02T08:05:04.887Z,23.86
2023-03-02T08:06:04.890Z,23.88
2023-03-02T08:07:05.143Z,23.86
2023-03-02T08:08:04.954Z,23.88
2023-03-02T08:09:04.916Z,23.91
2023-03-02T08:10:04.825Z,23.91
2023-03-02T08:11:04.825Z,23.89
2023-03-02T08:12:05.738Z,23.91
2023-03-02T08:13:04.805Z,23.88
2023-03-02T08:14:04.874Z,23.91
2023-03-02T08:15:05.154Z,23.89
2023-03-02T08:16:04.890Z,23.88
2023-03-02T08:17:04.890Z,23.88
2023-03-02T08:18:04.730Z,23.86
2023-03-02T08:19:04.707Z,23.84
2023-03-02T08:20:05.745Z,23.85
2023-03-02T08:21:04.672Z,23.82
2023-03-02T08:22:05.207Z,23.82
2023-03-02T08:23:04.688Z,23.82
2023-03-02T08:24:04.973Z,23.81
2023-03-02T08:25:04.615Z,23.78
2023-03-02T08:26:04.623Z,23.78
2023-03-02T08:27:04.754Z,23.77
2023-03-02T08:28:05.015Z,23.77
2023-03-02T08:29:04.661Z,23.75
2023-03-02T08:30:04.531Z,23.75
2023-03-02T08:31:05.815Z,23.69
2023-03-02T08:32:04.714Z,23.68
2023-03-02T08:33:07.042Z,23.71
2023-03-02T08:34:04.765Z,23.71
2023-03-02T08:35:05.180Z,23.68
2023-03-02T08:36:04.934Z,23.68
2023-03-02T08:37:04.529Z,23.69
2023-03-02T08:38:04.445Z,23.71
2023-03-02T08:39:04.478Z,23.81
2023-03-02T08:40:04.411Z,23.86
2023-03-02T08:41:04.373Z,23.92
2023-03-02T08:42:04.365Z,23.94
2023-03-02T08:43:05.764Z,23.98
2023-03-02T08:44:04.321Z,24.03
2023-03-02T08:45:04.334Z,24.05
2023-03-02T08:46:04.349Z,24.12
2023-03-02T08:47:04.402Z,24.19
2023-03-02T08:48:04.248Z,24.17
2023-03-02T08:49:04.239Z,24.16
2023-03-02T08:50:04.215Z,24.19
2023-03-02T08:51:04.222Z,24.17
2023-03-02T08:52:04.192Z,24.19
2023-03-02T08:53:04.174Z,24.20
2023-03-02T08:54:04.162Z,24.24
2023-03-02T08:55:04.526Z,24.24
2023-03-02T08:56:04.140Z,24.27
2023-03-02T08:57:04.094Z,24.26
2023-03-02T08:58:04.069Z,24.27
2023-03-02T08:59:04.052Z,24.27
2023-03-02T09:00:04.120Z,24.24
2023-03-02T09:01:04.089Z,24.27
2023-03-02T09:02:04.065Z,24.31
2023-03-02T09:03:04.014Z,24.29
2023-03-02T09:04:04.164Z,24.29
2023-03-02T09:05:03.983Z,24.26
2023-03-02T09:06:03.953Z,24.29
2023-03-02T09:07:03.938Z,24.23
2023-03-02T09:08:03.908Z,24.24
2023-03-02T09:09:03.913Z,24.23
2023-03-02T09:10:03.911Z,24.24
2023-03-02T09:11:03.896Z,24.24
2023-03-02T09:12:03.876Z,24.26
2023-03-02T09:13:03.979Z,24.23
2023-03-02T09:14:03.867Z,24.23
2023-03-02T09:15:03.838Z,24.23
2023-03-02T09:16:03.840Z,24.23
2023-03-02T09:17:03.830Z,24.23
2023-03-02T09:18:03.821Z,24.23
2023-03-02T09:19:03.797Z,24.20
2023-03-02T09:20:03.830Z,24.22
2023-03-02T09:21:03.767Z,24.19
2023-03-02T09:22:03.775Z,24.17
2023-03-02T09:23:03.755Z,24.20
2023-03-02T09:24:03.768Z,24.17
2023-03-02T09:25:03.770Z,24.19
2023-03-02T09:26:03.688Z,24.17
2023-03-02T09:27:03.702Z,24.16
2023-03-02T09:28:03.681Z,24.17
2023-03-02T09:29:04.603Z,24.15
2023-03-02T09:30:03.682Z,24.15
2023-03-02T09:31:03.711Z,24.13
2023-03-02T09:32:03.844Z,24.11
2023-03-02T09:33:03.699Z,24.08
2023-03-02T09:34:03.634Z,24.09
2023-03-02T09:35:03.650Z,24.08
2023-03-02T09:36:03.672Z,24.09
2023-03-02T09:37:03.570Z,24.12
2023-03-02T09:38:03.673Z,24.11
2023-03-02T09:39:03.526Z,24.13
2023-03-02T09:40:03.544Z,24.13
2023-03-02T09:41:03.540Z,24.15
2023-03-02T09:42:03.540Z,24.16
2023-03-02T09:43:03.480Z,24.16
2023-03-02T09:44:03.461Z,24.16
2023-03-02T09:45:03.448Z,24.17
2023-03-02T09:46:03.467Z,24.17
2023-03-02T09:47:03.410Z,24.16
2023-03-02T09:48:03.392Z,24.15
2023-03-02T09:49:04.208Z,24.12
2023-03-02T09:50:03.401Z,24.11
2023-03-02T09:51:03.439Z,24.12
2023-03-02T09:52:03.361Z,24.11
2023-03-02T09:53:03.324Z,24.11
2023-03-02T09:54:04.254Z,24.11
2023-03-02T09:55:03.282Z,24.12
2023-03-02T09:56:03.278Z,24.11
2023-03-02T09:57:03.260Z,24.12
2023-03-02T09:58:03.241Z,24.12
2023-03-02T09:59:03.288Z,24.11
2023-03-02T10:00:16.544Z,24.12
2023-03-02T10:01:04.275Z,24.12
2023-03-02T10:02:03.179Z,24.13
2023-03-02T10:03:16.174Z,24.13
2023-03-02T10:04:04.391Z,24.13
2023-03-02T10:05:03.174Z,24.13
2023-03-02T10:06:03.151Z,24.15
2023-03-02T10:07:03.141Z,24.16
2023-03-02T10:08:03.126Z,24.15
2023-03-02T10:09:03.108Z,24.15
2023-03-02T10:10:03.140Z,24.16
2023-03-02T10:11:03.082Z,24.13
2023-03-02T10:12:03.068Z,24.16
2023-03-02T10:13:03.044Z,24.13
2023-03-02T10:14:03.056Z,24.16
2023-03-02T10:15:03.022Z,24.16
2023-03-02T10:16:03.123Z,24.17
2023-03-02T10:17:03.033Z,24.16
2023-03-02T10:18:02.953Z,24.16
2023-03-02T10:19:05.174Z,24.16
2023-03-02T10:20:03.098Z,24.17
2023-03-02T10:21:03.112Z,24.16
2023-03-02T10:22:03.070Z,24.16
2023-03-02T10:23:03.042Z,24.16
2023-03-02T10:24:03.065Z,24.16
2023-03-02T10:25:03.718Z,24.19
2023-03-02T10:26:03.019Z,24.17
2023-03-02T10:27:03.038Z,24.16
2023-03-02T10:28:03.030Z,24.17
2023-03-02T10:29:02.946Z,24.19
2023-03-02T10:30:02.968Z,24.16
2023-03-02T10:31:05.128Z,24.19
2023-03-02T10:32:04.784Z,24.17
2023-03-02T10:33:02.988Z,24.16
2023-03-02T10:34:03.010Z,24.17
2023-03-02T10:35:02.924Z,24.16
2023-03-02T10:36:03.025Z,24.17
2023-03-02T10:37:02.919Z,24.17
2023-03-02T10:38:02.898Z,24.19
2023-03-02T10:39:02.941Z,24.22
2023-03-02T10:40:02.928Z,24.19
2023-03-02T10:41:02.981Z,24.15
2023-03-02T10:42:03.835Z,24.19
2023-03-02T10:43:02.888Z,24.20
2023-03-02T10:44:02.848Z,24.17
2023-03-02T10:45:02.861Z,24.16
2023-03-02T10:46:02.867Z,24.11
2023-03-02T10:47:02.802Z,24.16
2023-03-02T10:48:02.851Z,24.20
2023-03-02T10:49:02.744Z,24.22
2023-03-02T10:50:02.767Z,24.24
2023-03-02T10:51:02.738Z,24.24
2023-03-02T10:52:02.744Z,24.26
2023-03-02T10:53:05.166Z,24.27
2023-03-02T10:54:02.986Z,24.30
2023-03-02T10:55:02.891Z,24.31
2023-03-02T10:56:02.871Z,24.33
2023-03-02T10:57:02.896Z,24.33
2023-03-02T10:58:02.851Z,24.36
2023-03-02T10:59:02.808Z,24.36
2023-03-02T11:00:03.058Z,24.36
2023-03-02T11:01:02.756Z,24.36
2023-03-02T11:02:02.976Z,24.37
2023-03-02T11:03:02.773Z,24.40
2023-03-02T11:04:02.780Z,24.40
2023-03-02T11:05:03.967Z,24.40
2023-03-02T11:06:02.748Z,24.43
2023-03-02T11:07:02.772Z,24.46
2023-03-02T11:08:02.676Z,24.46
2023-03-02T11:09:02.643Z,24.48
2023-03-02T11:10:02.719Z,24.51
2023-03-02T11:11:02.640Z,24.50
2023-03-02T11:12:02.696Z,24.51
2023-03-02T11:13:02.757Z,24.50
2023-03-02T11:14:02.547Z,24.53
2023-03-02T11:15:03.236Z,24.50
2023-03-02T11:16:02.666Z,24.53
2023-03-02T11:17:03.602Z,24.53
2023-03-02T11:18:03.029Z,24.54
2023-03-02T11:19:02.525Z,24.53
2023-03-02T11:20:02.461Z,24.53
2023-03-02T11:21:02.453Z,24.56
2023-03-02T11:22:02.501Z,24.58
2023-03-02T11:23:02.403Z,24.57
2023-03-02T11:24:02.652Z,24.57
2023-03-02T11:25:02.407Z,24.57
2023-03-02T11:27:04.773Z,24.60
2023-03-02T11:28:03.119Z,24.60
2023-03-02T11:29:03.175Z,24.63
2023-03-02T11:30:03.353Z,24.61
2023-03-02T11:31:07.187Z,24.65
2023-03-02T11:33:03.932Z,24.68
2023-03-02T11:34:11.621Z,24.70
2023-03-02T11:35:03.251Z,24.68
2023-03-02T11:36:02.910Z,24.65
2023-03-02T11:55:03.015Z,24.84
2023-03-02T12:10:08.151Z,24.89
2023-03-02T12:11:05.871Z,24.89
2023-03-02T12:12:05.432Z,24.92
2023-03-02T12:14:04.509Z,24.92
2023-03-02T12:16:02.755Z,24.92
2023-03-02T12:19:03.873Z,24.95
2023-03-02T12:20:02.749Z,24.95
2023-03-02T12:22:09.397Z,24.93
2023-03-02T13:37:59.704Z,25.30
2023-03-02T13:38:59.647Z,25.29
2023-03-02T13:39:59.655Z,25.29
2023-03-02T13:40:59.650Z,25.33
2023-03-02T13:41:59.577Z,25.34
2023-03-02T13:42:59.576Z,25.32
2023-03-02T13:43:59.551Z,25.32
2023-03-02T13:44:59.504Z,25.32
2023-03-02T13:45:59.569Z,25.36
2023-03-02T13:46:59.465Z,25.32
2023-03-02T13:47:59.422Z,25.27
2023-03-02T13:49:12.766Z,25.27
2023-03-02T13:50:00.475Z,25.25
2023-03-02T13:50:59.376Z,25.23
2023-03-02T13:51:59.366Z,25.25
2023-03-02T13:52:59.324Z,25.26
2023-03-02T13:53:59.290Z,25.27
2023-03-02T13:54:59.280Z,25.30
2023-03-02T13:55:59.258Z,25.36
2023-03-02T13:56:59.237Z,25.33
2023-03-02T13:57:59.219Z,25.26
2023-03-02T13:58:59.172Z,25.25
2023-03-02T13:59:59.216Z,25.25
2023-03-02T14:00:59.207Z,25.25
2023-03-02T14:01:59.123Z,25.25
2023-03-02T14:02:59.076Z,25.23
2023-03-02T14:03:59.157Z,25.22
2023-03-02T14:04:59.132Z,25.18
2023-03-02T14:05:59.066Z,25.22
2023-03-02T14:06:59.002Z,25.20
2023-03-02T14:07:59.018Z,25.19
2023-03-02T14:08:58.968Z,25.18
2023-03-02T14:09:58.926Z,25.18
2023-03-02T14:10:58.901Z,25.18
2023-03-02T14:11:58.870Z,25.19
2023-03-02T14:12:58.828Z,25.13
2023-03-02T14:13:58.827Z,25.13
2023-03-02T14:14:58.864Z,25.12
2023-03-02T14:15:58.827Z,25.10
2023-03-02T14:16:58.714Z,25.08
2023-03-02T14:17:58.717Z,25.05
2023-03-02T14:18:58.689Z,25.05
2023-03-02T14:19:58.626Z,25.03
2023-03-02T14:20:58.718Z,25.02
2023-03-02T14:21:58.594Z,25.03
2023-03-02T14:22:58.566Z,25.01
2023-03-02T14:23:58.586Z,24.99
2023-03-02T14:24:58.535Z,24.96
2023-03-02T14:25:58.557Z,24.96
2023-03-02T14:26:58.513Z,24.93
2023-03-02T14:27:58.471Z,24.93
2023-03-02T14:29:05.394Z,24.93
2023-03-02T14:29:59.423Z,24.91
2023-03-02T14:30:58.446Z,24.89
2023-03-02T14:31:58.455Z,24.91
2023-03-02T14:32:58.365Z,24.89
2023-03-02T14:33:58.322Z,24.89
2023-03-02T14:34:58.303Z,24.88
2023-03-02T14:35:58.372Z,24.86
2023-03-02T14:36:58.290Z,24.85
2023-03-02T14:37:58.274Z,24.84
2023-03-02T14:38:58.223Z,24.82
2023-03-02T14:39:58.228Z,24.79
2023-03-02T14:40:58.219Z,24.78
2023-03-02T14:41:58.581Z,24.77
2023-03-02T14:42:58.159Z,24.77
2023-03-02T14:43:58.135Z,24.75
2023-03-02T14:44:59.813Z,24.74
2023-03-02T14:45:58.155Z,24.71
2023-03-02T14:46:58.089Z,24.72
2023-03-02T14:47:58.056Z,24.71
2023-03-02T14:48:58.021Z,24.70
2023-03-02T14:49:58.017Z,24.68
2023-03-02T14:51:00.245Z,24.65
2023-03-02T14:51:58.001Z,24.65
2023-03-02T14:52:57.968Z,24.68
2023-03-02T14:53:57.970Z,24.65
2023-03-02T14:54:57.970Z,24.65
2023-03-02T14:55:57.879Z,24.64
2023-03-02T14:56:57.878Z,24.68
2023-03-02T14:57:57.871Z,24.64
2023-03-02T14:58:57.862Z,24.63
2023-03-02T14:59:57.831Z,24.64
2023-03-02T15:00:57.814Z,24.64
2023-03-02T15:01:59.847Z,24.64
2023-03-02T15:02:57.850Z,24.63
2023-03-02T15:03:57.732Z,24.64
2023-03-02T15:04:57.878Z,24.63
2023-03-02T15:06:01.519Z,24.64
2023-03-02T15:06:57.864Z,24.64
2023-03-02T15:07:58.695Z,24.63
2023-03-02T15:08:57.657Z,24.63
2023-03-02T15:09:57.680Z,24.64
2023-03-02T15:10:57.637Z,24.61
2023-03-02T15:11:57.646Z,24.63
2023-03-02T15:12:57.592Z,24.61
2023-03-02T15:13:57.589Z,24.63
2023-03-02T15:14:57.567Z,24.61
2023-03-02T15:15:57.586Z,24.61
2023-03-02T15:16:57.517Z,24.63
2023-03-02T15:17:57.570Z,24.60
2023-03-02T15:18:58.996Z,24.57
2023-03-02T15:19:57.471Z,24.57
2023-03-02T15:20:57.481Z,24.58
2023-03-02T15:21:57.440Z,24.57
2023-03-02T15:22:57.402Z,24.57
2023-03-02T15:23:57.452Z,24.57
2023-03-02T15:24:57.356Z,24.56
2023-03-02T15:25:57.355Z,24.57
2023-03-02T15:26:57.344Z,24.56
2023-03-02T15:27:57.339Z,24.53
2023-03-02T15:28:57.300Z,24.54
2023-03-02T15:29:57.299Z,24.56
2023-03-02T15:30:57.243Z,24.54
2023-03-02T15:31:57.348Z,24.54
2023-03-02T15:32:57.218Z,24.53
2023-03-02T15:33:57.212Z,24.54
2023-03-02T15:34:57.155Z,24.53
2023-03-02T15:35:57.153Z,24.53
2023-03-02T15:36:57.129Z,24.53
2023-03-02T15:37:57.130Z,24.51
2023-03-02T15:38:57.094Z,24.51
2023-03-02T15:39:57.056Z,24.51
2023-03-02T15:40:57.033Z,24.48
2023-03-02T15:41:57.053Z,24.50
2023-03-02T15:42:57.013Z,24.48
2023-03-02T15:43:57.013Z,24.47
2023-03-02T15:44:56.962Z,24.46
2023-03-02T15:45:56.972Z,24.47
2023-03-02T15:46:56.998Z,24.43
2023-03-02T15:47:57.090Z,24.47
2023-03-02T15:48:56.904Z,24.43
2023-03-02T15:49:56.865Z,24.46
2023-03-02T15:50:56.820Z,24.44
2023-03-02T15:51:56.819Z,24.43
2023-03-02T15:52:56.820Z,24.41
2023-03-02T15:53:56.766Z,24.40
2023-03-02T15:54:56.752Z,24.40
2023-03-02T15:55:56.726Z,24.39
2023-03-02T15:56:56.690Z,24.41
2023-03-02T15:57:56.705Z,24.39
2023-03-02T15:58:56.671Z,24.37
2023-03-02T15:59:56.649Z,24.37
2023-03-02T16:00:56.651Z,24.36
2023-03-02T16:01:56.601Z,24.39
2023-03-02T16:02:56.652Z,24.36
2023-03-02T16:03:56.568Z,24.36
2023-03-02T16:04:56.580Z,24.34
2023-03-02T16:05:56.525Z,24.34
2023-03-02T16:06:56.513Z,24.31
2023-03-02T16:07:56.501Z,24.30
2023-03-02T16:08:56.494Z,24.31
2023-03-02T16:09:56.444Z,24.29
2023-03-02T16:10:56.522Z,24.27
2023-03-02T16:11:56.436Z,24.27
2023-03-02T16:12:56.442Z,24.26
2023-03-02T16:13:56.391Z,24.24
2023-03-02T16:14:56.389Z,24.23
2023-03-02T16:15:56.349Z,24.23
2023-03-02T16:16:56.396Z,24.22
2023-03-02T16:17:56.325Z,24.22
2023-03-02T16:18:56.332Z,24.22
2023-03-02T16:19:56.292Z,24.20
2023-03-02T16:20:56.275Z,24.17
2023-03-02T16:21:56.262Z,24.15
2023-03-02T16:22:56.230Z,24.12
2023-03-02T16:23:56.232Z,24.13
2023-03-02T16:24:56.209Z,24.16
2023-03-02T16:25:56.204Z,24.13
2023-03-02T16:26:56.167Z,24.12
2023-03-02T16:27:56.195Z,24.11
2023-03-02T16:28:56.180Z,24.11
2023-03-02T16:29:56.129Z,24.11
2023-03-02T16:30:56.115Z,24.11
2023-03-02T16:31:56.177Z,24.11
2023-03-02T16:32:56.093Z,24.09
2023-03-02T16:33:56.070Z,24.09
2023-03-02T16:34:56.077Z,24.11
2023-03-02T16:35:56.043Z,24.11
2023-03-02T16:36:56.029Z,24.11
2023-03-02T16:37:55.986Z,24.06
2023-03-02T16:38:55.983Z,24.08
2023-03-02T16:39:55.981Z,24.09
2023-03-02T16:40:57.204Z,24.06
2023-03-02T16:41:55.945Z,24.05
2023-03-02T16:42:55.909Z,24.03
2023-03-02T16:43:55.911Z,24.03
2023-03-02T16:44:55.872Z,24.05
2023-03-02T16:45:55.910Z,24.01
2023-03-02T16:46:57.327Z,24.02
2023-03-02T16:47:55.846Z,24.01
2023-03-02T16:48:55.811Z,24.01
2023-03-02T16:49:55.793Z,24.02
2023-03-02T16:50:55.766Z,24.01
2023-03-02T16:51:55.748Z,23.99
2023-03-02T16:52:55.762Z,23.99
2023-03-02T16:53:55.731Z,24.01
2023-03-02T16:54:55.709Z,23.98
2023-03-02T16:55:55.684Z,23.98
2023-03-02T16:56:55.657Z,23.96
2023-03-02T16:57:55.652Z,23.96
2023-03-02T16:58:55.787Z,23.94
2023-03-02T16:59:55.624Z,23.94
2023-03-02T17:00:55.678Z,23.92
2023-03-02T17:01:55.581Z,23.92
2023-03-02T17:02:55.564Z,23.89
2023-03-02T17:03:55.591Z,23.92
2023-03-02T17:04:55.505Z,23.92
2023-03-02T17:05:55.495Z,23.91
2023-03-02T17:07:00.852Z,23.89
2023-03-02T17:07:56.452Z,23.91
2023-03-02T17:08:55.493Z,23.89
2023-03-02T17:09:55.420Z,23.88
2023-03-02T17:10:55.413Z,23.86
2023-03-02T17:11:55.392Z,23.86
2023-03-02T17:12:55.359Z,23.85
2023-03-02T17:13:55.349Z,23.85
2023-03-02T17:14:55.345Z,23.84
2023-03-02T17:15:55.335Z,23.82
2023-03-02T17:16:55.291Z,23.82
2023-03-02T17:17:55.267Z,23.82
2023-03-02T17:18:55.289Z,23.84
2023-03-02T17:19:55.257Z,23.84
2023-03-02T17:20:55.246Z,23.81
2023-03-02T17:21:55.186Z,23.82
2023-03-02T17:22:55.179Z,23.78
2023-03-02T17:23:55.176Z,23.79
2023-03-02T17:24:55.184Z,23.79
2023-03-02T17:25:55.115Z,23.81
2023-03-02T17:26:55.103Z,23.77
2023-03-02T17:27:55.073Z,23.78
2023-03-02T17:28:55.032Z,23.78
2023-03-02T17:29:55.275Z,23.77
2023-03-02T17:30:55.040Z,23.78
2023-03-02T17:31:55.083Z,23.78
2023-03-02T17:32:54.983Z,23.75
2023-03-02T17:33:54.969Z,23.75
2023-03-02T17:34:54.964Z,23.75
2023-03-02T17:35:54.911Z,23.75
2023-03-02T17:36:54.886Z,23.75
2023-03-02T17:37:54.967Z,23.74
2023-03-02T17:38:54.869Z,23.75
2023-03-02T17:39:54.856Z,23.72
2023-03-02T17:40:54.840Z,23.72
2023-03-02T17:41:54.818Z,23.72
2023-03-02T17:42:56.796Z,23.72
2023-03-02T17:43:54.768Z,23.72
2023-03-02T17:44:54.760Z,23.72
2023-03-02T17:45:54.765Z,23.75
2023-03-02T17:46:54.704Z,23.72
2023-03-02T17:47:54.708Z,23.71
2023-03-02T17:48:54.680Z,23.71
2023-03-02T17:49:54.687Z,23.69
2023-03-02T17:50:54.668Z,23.71
2023-03-02T17:51:54.652Z,23.69
2023-03-02T17:52:54.617Z,23.69
2023-03-02T17:53:54.607Z,23.68
2023-03-02T17:54:54.611Z,23.68
2023-03-02T17:55:54.571Z,23.68
2023-03-02T17:56:54.554Z,23.65
2023-03-02T17:57:54.544Z,23.67
2023-03-02T17:58:54.505Z,23.68
2023-03-02T17:59:54.526Z,23.65
2023-03-02T18:00:54.480Z,23.65
2023-03-02T18:01:54.468Z,23.67
2023-03-02T18:02:54.504Z,23.65
2023-03-02T18:03:54.472Z,23.67
2023-03-02T18:04:54.414Z,23.68
2023-03-02T18:05:54.387Z,23.67
2023-03-02T18:06:54.392Z,23.65
2023-03-02T18:07:54.337Z,23.65
2023-03-02T18:08:54.344Z,23.65
2023-03-02T18:09:54.361Z,23.67
2023-03-02T18:10:54.308Z,23.62
2023-03-02T18:11:54.284Z,23.67
2023-03-02T18:12:54.479Z,23.64
2023-03-02T18:13:54.253Z,23.62
2023-03-02T18:14:54.744Z,23.62
2023-03-02T18:15:54.263Z,23.64
2023-03-02T18:16:54.183Z,23.62
2023-03-02T18:17:54.192Z,23.61
2023-03-02T18:18:54.243Z,23.60
2023-03-02T18:19:54.165Z,23.61
2023-03-02T18:20:54.169Z,23.61
2023-03-02T18:21:54.117Z,23.58
2023-03-02T18:22:54.125Z,23.58
2023-03-02T18:23:54.086Z,23.60
2023-03-02T18:24:54.095Z,23.61
2023-03-02T18:25:54.075Z,23.58
2023-03-02T18:26:54.053Z,23.57
2023-03-02T18:27:54.047Z,23.58
2023-03-02T18:28:54.026Z,23.57
2023-03-02T18:29:54.013Z,23.57
2023-03-02T18:30:54.047Z,23.54
2023-03-02T18:31:54.014Z,23.54
2023-03-02T18:32:53.964Z,23.57
2023-03-02T18:33:53.975Z,23.56
2023-03-02T18:34:53.967Z,23.54
2023-03-02T18:35:53.953Z,23.53
2023-03-02T18:36:54.163Z,23.53
2023-03-02T18:37:53.906Z,23.51
2023-03-02T18:38:53.921Z,23.51
2023-03-02T18:39:53.874Z,23.53
2023-03-02T18:40:53.887Z,23.53
2023-03-02T18:41:53.854Z,23.50
2023-03-02T18:42:53.821Z,23.51
2023-03-02T18:43:53.828Z,23.51
2023-03-02T18:44:53.804Z,23.54
2023-03-02T18:45:53.808Z,23.53
2023-03-02T18:46:53.827Z,23.51
2023-03-02T18:47:53.764Z,23.53
2023-03-02T18:48:53.758Z,23.51
2023-03-02T18:49:53.740Z,23.49
2023-03-02T18:50:53.743Z,23.50
2023-03-02T18:51:53.713Z,23.47
2023-03-02T18:52:53.702Z,23.50
2023-03-02T18:53:53.709Z,23.49
2023-03-02T18:54:53.670Z,23.49
2023-03-02T18:55:53.704Z,23.50
2023-03-02T18:56:53.685Z,23.50
2023-03-02T18:57:53.652Z,23.47
2023-03-02T18:58:53.619Z,23.47
2023-03-02T18:59:53.626Z,23.46
2023-03-02T19:00:53.720Z,23.47
2023-03-02T19:01:53.618Z,23.46
2023-03-02T19:02:53.590Z,23.46
2023-03-02T19:03:53.559Z,23.49
2023-03-02T19:04:53.549Z,23.44
2023-03-02T19:05:53.539Z,23.46
2023-03-02T19:06:53.502Z,23.44
2023-03-02T19:07:53.501Z,23.43
2023-03-02T19:08:53.498Z,23.44
2023-03-02T19:09:53.469Z,23.44
2023-03-02T19:10:53.474Z,23.43
2023-03-02T19:11:53.436Z,23.41
2023-03-02T19:12:53.440Z,23.41
2023-03-02T19:13:53.415Z,23.41
2023-03-02T19:14:53.431Z,23.40
2023-03-02T19:15:54.746Z,23.40
2023-03-02T19:16:53.381Z,23.40
2023-03-02T19:17:53.361Z,23.41
2023-03-02T19:18:53.357Z,23.39
2023-03-02T19:19:53.355Z,23.39
2023-03-02T19:20:53.353Z,23.39
2023-03-02T19:21:53.332Z,23.39
2023-03-02T19:22:53.303Z,23.39
2023-03-02T19:23:53.297Z,23.37
2023-03-02T19:24:53.266Z,23.39
2023-03-02T19:25:53.273Z,23.36
2023-03-02T19:26:53.276Z,23.37
2023-03-02T19:27:53.273Z,23.37
2023-03-02T19:28:53.240Z,23.34
2023-03-02T19:29:53.248Z,23.34
2023-03-02T19:30:53.954Z,23.36
2023-03-02T19:31:53.294Z,23.33
2023-03-02T19:32:53.195Z,23.33
2023-03-02T19:33:53.196Z,23.34
2023-03-02T19:34:53.166Z,23.34
2023-03-02T19:35:53.230Z,23.32
2023-03-02T19:36:53.170Z,23.36
2023-03-02T19:37:53.133Z,23.30
2023-03-02T19:38:53.131Z,23.32
2023-03-02T19:39:53.099Z,23.32
2023-03-02T19:40:53.094Z,23.30
2023-03-02T19:41:53.107Z,23.30
2023-03-02T19:42:53.066Z,23.32
2023-03-02T19:43:53.080Z,23.29
2023-03-02T19:44:53.041Z,23.29
2023-03-02T19:45:53.107Z,23.30
2023-03-02T19:46:53.034Z,23.30
2023-03-02T19:47:53.014Z,23.30
2023-03-02T19:48:52.983Z,23.32
2023-03-02T19:49:53.018Z,23.30
2023-03-02T19:50:52.954Z,23.30
2023-03-02T19:51:52.918Z,23.29
2023-03-02T19:52:52.903Z,23.30
2023-03-02T19:53:52.913Z,23.30
2023-03-02T19:54:52.880Z,23.27
2023-03-02T19:55:52.893Z,23.29
2023-03-02T19:56:52.849Z,23.27
2023-03-02T19:57:52.844Z,23.26
2023-03-02T19:58:52.806Z,23.26
2023-03-02T19:59:52.799Z,23.27
2023-03-02T20:00:52.895Z,23.29
2023-03-02T20:01:52.886Z,23.29
2023-03-02T20:02:52.764Z,23.29
2023-03-02T20:03:52.783Z,23.26
2023-03-02T20:04:52.741Z,23.26
2023-03-02T20:05:52.782Z,23.27
2023-03-02T20:06:52.741Z,23.26
2023-03-02T20:07:52.703Z,23.29
2023-03-02T20:08:52.831Z,23.26
2023-03-02T20:09:52.709Z,23.24
2023-03-02T20:10:52.688Z,23.27
2023-03-02T20:11:52.675Z,23.26
2023-03-02T20:12:52.665Z,23.22
2023-03-02T20:13:52.642Z,23.23
2023-03-02T20:14:52.639Z,23.24
2023-03-02T20:15:52.684Z,23.24
2023-03-02T20:16:52.654Z,23.23
2023-03-02T20:17:52.592Z,23.22
2023-03-02T20:18:52.604Z,23.22
2023-03-02T20:19:52.626Z,23.22
2023-03-02T20:20:52.575Z,23.20
2023-03-02T20:21:52.616Z,23.23
2023-03-02T20:22:52.562Z,23.20
2023-03-02T20:23:52.541Z,23.22
2023-03-02T20:24:52.527Z,23.19
2023-03-02T20:25:52.496Z,23.17
2023-03-02T20:26:52.531Z,23.19
2023-03-02T20:27:52.478Z,23.16
2023-03-02T20:28:52.444Z,23.19
2023-03-02T20:29:52.437Z,23.17
2023-03-02T20:30:52.529Z,23.17
2023-03-02T20:31:52.454Z,23.17
2023-03-02T20:32:52.446Z,23.19
2023-03-02T20:33:52.397Z,23.19
2023-03-02T20:34:52.367Z,23.19
2023-03-02T20:35:52.372Z,23.16
2023-03-02T20:36:52.339Z,23.16
2023-03-02T20:37:52.348Z,23.16
2023-03-02T20:38:52.341Z,23.17
2023-03-02T20:39:52.346Z,23.17
2023-03-02T20:40:52.314Z,23.16
2023-03-02T20:41:52.315Z,23.16
2023-03-02T20:42:52.324Z,23.13
2023-03-02T20:43:52.331Z,23.16
2023-03-02T20:44:52.328Z,23.15
2023-03-02T20:45:52.307Z,23.16
2023-03-02T20:46:52.253Z,23.16
2023-03-02T20:47:52.272Z,23.13
2023-03-02T20:48:52.253Z,23.13
2023-03-02T20:49:52.228Z,23.09
2023-03-02T20:50:52.197Z,23.13
2023-03-02T20:51:52.202Z,23.15
2023-03-02T20:52:52.188Z,23.16
2023-03-02T20:53:52.166Z,23.13
2023-03-02T20:54:52.145Z,23.13
2023-03-02T20:55:52.141Z,23.12
2023-03-02T20:56:52.107Z,23.12
2023-03-02T20:57:52.105Z,23.13
2023-03-02T20:58:52.068Z,23.13
2023-03-02T20:59:52.111Z,23.12
2023-03-02T21:00:52.054Z,23.12
2023-03-02T21:01:52.125Z,23.10
2023-03-02T21:02:52.063Z,23.10
2023-03-02T21:03:52.034Z,23.12
2023-03-02T21:04:52.069Z,23.09
2023-03-02T21:05:51.985Z,23.10
2023-03-02T21:06:51.993Z,23.10
2023-03-02T21:07:52.014Z,23.09
2023-03-02T21:08:51.968Z,23.07
2023-03-02T21:09:51.969Z,23.09
2023-03-02T21:10:51.931Z,23.09
2023-03-02T21:11:51.948Z,23.09
2023-03-02T21:12:51.937Z,23.06
2023-03-02T21:13:51.903Z,23.07
2023-03-02T21:14:51.897Z,23.09
2023-03-02T21:15:51.952Z,23.05
2023-03-02T21:16:51.846Z,23.06
2023-03-02T21:17:51.848Z,23.06
2023-03-02T21:18:51.867Z,23.07
2023-03-02T21:19:51.819Z,23.03
2023-03-02T21:20:51.824Z,23.06
2023-03-02T21:21:51.779Z,23.06
2023-03-02T21:22:51.787Z,23.07
2023-03-02T21:23:51.748Z,23.03
2023-03-02T21:24:51.758Z,23.06
2023-03-02T21:25:52.508Z,23.06
2023-03-02T21:26:51.719Z,23.03
2023-03-02T21:27:51.739Z,23.03
2023-03-02T21:28:51.675Z,23.03
2023-03-02T21:29:51.684Z,23.05
2023-03-02T21:30:51.690Z,23.02
2023-03-02T21:31:51.758Z,23.03
2023-03-02T21:32:51.637Z,23.05
2023-03-02T21:33:51.609Z,23.01
2023-03-02T21:34:51.627Z,23.02
2023-03-02T21:35:51.619Z,23.02
2023-03-02T21:36:51.567Z,23.02
2023-03-02T21:37:51.597Z,23.02
2023-03-02T21:38:51.554Z,23.03
2023-03-02T21:39:51.568Z,23.01
2023-03-02T21:40:51.514Z,23.02
2023-03-02T21:41:51.527Z,23.02
2023-03-02T21:42:51.528Z,23.02
2023-03-02T21:43:51.529Z,23.01
2023-03-02T21:44:51.520Z,23.01
2023-03-02T21:45:51.457Z,22.99
2023-03-02T21:46:51.458Z,22.99
2023-03-02T21:47:51.444Z,23.01
2023-03-02T21:48:51.438Z,22.98
2023-03-02T21:49:51.402Z,22.96
2023-03-02T21:50:51.410Z,22.98
2023-03-02T21:51:51.400Z,22.96
2023-03-02T21:52:51.366Z,22.98
2023-03-02T21:53:51.384Z,22.98
2023-03-02T21:54:51.334Z,22.96
2023-03-02T21:55:51.334Z,22.98
2023-03-02T21:56:51.305Z,22.98
2023-03-02T21:57:51.279Z,22.98
2023-03-02T21:58:51.300Z,22.96
2023-03-02T21:59:51.277Z,22.96
2023-03-02T22:00:51.263Z,22.98
2023-03-02T22:01:51.338Z,22.96
2023-03-02T22:02:51.245Z,22.95
2023-03-02T22:03:51.222Z,22.95
2023-03-02T22:04:51.225Z,22.98
2023-03-02T22:05:51.195Z,22.94
2023-03-02T22:06:51.209Z,22.96
2023-03-02T22:07:51.210Z,22.94
2023-03-02T22:08:51.196Z,22.96
2023-03-02T22:09:51.198Z,22.94
2023-03-02T22:10:51.208Z,22.95
2023-03-02T22:11:51.144Z,22.95
2023-03-02T22:12:51.146Z,22.95
2023-03-02T22:13:51.163Z,22.96
2023-03-02T22:14:51.117Z,22.95
2023-03-02T22:15:51.138Z,22.92
2023-03-02T22:16:51.088Z,22.94
2023-03-02T22:17:51.101Z,22.94
2023-03-02T22:18:51.088Z,22.94
2023-03-02T22:19:51.048Z,22.92
2023-03-02T22:20:51.116Z,22.92
2023-03-02T22:21:51.032Z,22.92
2023-03-02T22:22:51.009Z,22.92
2023-03-02T22:23:51.024Z,22.92
2023-03-02T22:24:51.011Z,22.92
2023-03-02T22:25:50.986Z,22.92
2023-03-02T22:26:50.972Z,22.89
2023-03-02T22:27:50.953Z,22.91
2023-03-02T22:28:50.948Z,22.91
2023-03-02T22:29:50.947Z,22.91
2023-03-02T22:30:50.928Z,22.91
2023-03-02T22:31:50.910Z,22.89
2023-03-02T22:32:50.887Z,22.91
2023-03-02T22:33:50.945Z,22.89
2023-03-02T22:34:50.918Z,22.89
2023-03-02T22:35:50.928Z,22.88
2023-03-02T22:36:50.887Z,22.88
2023-03-02T22:37:50.848Z,22.89
2023-03-02T22:38:50.898Z,22.89
2023-03-02T22:39:50.860Z,22.89
2023-03-02T22:40:50.826Z,22.88
2023-03-02T22:41:50.820Z,22.88
2023-03-02T22:42:50.833Z,22.88
2023-03-02T22:43:50.795Z,22.88
2023-03-02T22:44:50.813Z,22.88
2023-03-02T22:45:50.782Z,22.89
2023-03-02T22:46:50.810Z,22.87
2023-03-02T22:47:50.776Z,22.88